Time;durP1;ratioP1;P1;durP2;ratioP2;P2;SDS_P1;SDS_P2;PMS_P1;PMS_P2;Temp;Humidity;BMP_temperature;BMP_pressure;BME280_temperature;BME280_humidity;BME280_pressure;Samples;Min_cycle;Max_cycle;Signal;HPM_P1;HPM_P2
2022/07/15 00:01:50;;;;;;;;;;;;;;;24.90;60.56;99351.63;4347621;33;20022;-88
2022/07/15 00:04:15;;;;;;;;;;;;;;;24.66;60.54;99373.47;4358414;32;20055;-88
2022/07/15 00:06:40;;;;;;;;;;;;;;;24.52;60.54;99377.44;4358080;32;19995;-88
2022/07/15 00:09:05;;;;;;;;;;;;;;;24.45;60.53;99357.75;4352675;32;20059;-89
2022/07/15 00:11:31;;;;;;;;;;;;;;;24.49;60.53;99343.16;4348227;32;19996;-89
2022/07/15 00:13:56;;;;;;;;;;;;;;;24.49;60.53;99322.72;4353071;32;20294;-89
2022/07/15 00:16:21;;;;;;;;;;;;;;;24.63;60.54;99348.00;4345598;33;20038;-88
2022/07/15 00:18:46;;;;;;;;;;;;;;;24.66;60.53;99346.88;4337479;33;23097;-87
2022/07/15 00:21:11;;;;;;;;;;;;;;;24.83;60.54;99339.88;4354988;32;19995;-87
2022/07/15 00:23:37;;;;;;;;;;;;;;;24.64;60.53;99343.53;4345926;32;20330;-87
2022/07/15 00:26:02;;;;;;;;;;;;;;;24.48;60.53;99333.50;4347277;33;19979;-87
2022/07/15 00:28:28;;;;;;;;;;;;;;;24.53;60.53;99323.25;4357705;32;28855;-88
2022/07/15 00:30:53;;;;;;;;;;;;;;;24.58;60.54;99313.00;4345827;32;19999;-87
2022/07/15 00:33:18;;;;;;;;;;;;;;;24.67;60.54;99303.28;4357722;32;19987;-87
2022/07/15 00:35:44;;;;;;;;;;;;;;;24.68;60.54;99312.94;4345553;33;20372;-88
2022/07/15 00:38:09;;;;;;;;;;;;;;;24.57;60.53;99295.34;4332414;33;20257;-87
2022/07/15 00:40:43;;;;;;;;;;;;;;;24.73;60.54;99298.19;4358474;32;20370;-87
2022/07/15 00:43:09;;;;;;;;;;;;;;;24.76;60.54;99313.88;4343268;33;19980;-87
2022/07/15 00:45:34;;;;;;;;;;;;;;;24.60;60.53;99297.72;4343190;32;19984;-87
2022/07/15 00:47:59;;;;;;;;;;;;;;;24.55;60.54;99286.69;4343366;32;19971;-87
2022/07/15 00:50:26;;;;;;;;;;;;;;;24.62;60.54;99290.44;4357567;32;19995;-87
2022/07/15 00:52:54;;;;;;;;;;;;;;;24.64;60.53;99283.16;4347617;33;19979;-87
2022/07/15 00:55:19;;;;;;;;;;;;;;;24.71;60.54;99278.88;4358564;32;20047;-89
2022/07/15 00:57:45;;;;;;;;;;;;;;;24.79;60.54;99286.94;4350720;32;20318;-96
2022/07/15 01:00:11;;;;;;;;;;;;;;;24.79;60.54;99284.28;4344026;33;20014;-90
2022/07/15 01:02:36;;;;;;;;;;;;;;;24.95;60.55;99282.78;4331523;33;19976;-91
2022/07/15 01:05:01;;;;;;;;;;;;;;;25.15;60.57;99297.66;4346130;33;20018;-90
2022/07/15 01:07:27;;;;;;;;;;;;;;;25.06;60.56;99309.19;4346187;33;20321;-90
2022/07/15 01:09:52;;;;;;;;;;;;;;;25.03;60.56;99320.16;4333907;33;20038;-91
2022/07/15 01:12:17;;;;;;;;;;;;;;;25.01;60.55;99325.63;4336472;33;20289;-90
2022/07/15 01:14:42;;;;;;;;;;;;;;;25.13;60.57;99322.78;4341507;33;20027;-90
2022/07/15 01:17:08;;;;;;;;;;;;;;;25.09;60.56;99327.56;4339492;33;19994;-91
2022/07/15 01:19:34;;;;;;;;;;;;;;;25.24;60.57;99339.34;4358390;32;20046;-90
2022/07/15 01:21:59;;;;;;;;;;;;;;;25.27;60.57;99339.03;4339623;33;20242;-91
2022/07/15 01:24:24;;;;;;;;;;;;;;;25.09;60.56;99343.53;4354940;32;19983;-90
2022/07/15 01:26:49;;;;;;;;;;;;;;;25.27;60.57;99347.03;4353818;32;20003;-90
2022/07/15 01:29:15;;;;;;;;;;;;;;;25.34;60.57;99350.78;4340935;33;19987;-90
2022/07/15 01:31:40;;;;;;;;;;;;;;;25.31;60.57;99355.53;4334962;33;20090;-91
2022/07/15 01:34:05;;;;;;;;;;;;;;;25.33;60.57;99346.44;4347675;33;19983;-91
2022/07/15 01:36:30;;;;;;;;;;;;;;;25.43;60.57;99349.00;4353434;32;19991;-92
2022/07/15 01:38:55;;;;;;;;;;;;;;;25.40;60.57;99342.16;4354116;32;19999;-90
2022/07/15 01:41:22;;;;;;;;;;;;;;;25.50;60.58;99343.88;4345198;33;20019;-90
2022/07/15 01:43:47;;;;;;;;;;;;;;;25.42;60.57;99336.69;4359579;32;19995;-91
2022/07/15 01:46:12;;;;;;;;;;;;;;;25.46;60.58;99332.72;4346720;33;20007;-91
2022/07/15 01:51:21;;;;;;;;;;;;;;;25.47;60.58;99345.03;4342590;33;19987;-90
2022/07/15 01:53:47;;;;;;;;;;;;;;;25.29;60.58;99338.87;4334262;33;20468;-91
2022/07/15 01:56:12;;;;;;;;;;;;;;;25.22;60.57;99337.81;4346606;33;20013;-91
2022/07/15 01:58:37;;;;;;;;;;;;;;;25.25;60.56;99337.50;4346295;33;20058;-90
2022/07/15 02:01:02;;;;;;;;;;;;;;;25.18;60.56;99347.94;4358786;32;19976;-90
2022/07/15 02:03:28;;;;;;;;;;;;;;;25.01;60.55;99360.25;4358944;32;20090;-91
2022/07/15 02:05:53;;;;;;;;;;;;;;;24.96;60.55;99359.00;4358623;32;19983;-89
2022/07/15 02:08:18;;;;;;;;;;;;;;;24.97;60.54;99352.69;4347388;33;19984;-88
2022/07/15 02:10:43;;;;;;;;;;;;;;;25.04;60.55;99328.00;4346032;33;20383;-89
2022/07/15 02:13:09;;;;;;;;;;;;;;;25.13;60.55;99328.94;4358266;32;20018;-89
2022/07/15 02:15:34;;;;;;;;;;;;;;;25.07;60.56;99335.69;4358600;32;20076;-89
2022/07/15 02:18:00;;;;;;;;;;;;;;;25.11;60.56;99330.06;4358375;32;20718;-89
2022/07/15 02:20:25;;;;;;;;;;;;;;;25.14;60.56;99337.75;4345951;32;20011;-89
2022/07/15 02:22:51;;;;;;;;;;;;;;;25.12;60.55;99356.56;4345956;32;19990;-90
2022/07/15 02:25:16;;;;;;;;;;;;;;;25.16;60.56;99357.91;4347257;33;20238;-89
2022/07/15 02:27:41;;;;;;;;;;;;;;;25.15;60.56;99368.72;4346858;33;19994;-90
2022/07/15 02:30:07;;;;;;;;;;;;;;;25.25;60.56;99388.97;4345461;33;20006;-89
2022/07/15 02:32:32;;;;;;;;;;;;;;;25.17;60.57;99401.38;4358123;32;20010;-90
2022/07/15 02:34:58;;;;;;;;;;;;;;;25.35;60.57;99418.22;4346729;33;20523;-90
2022/07/15 02:37:24;;;;;;;;;;;;;;;25.43;60.57;99428.13;4345522;33;20050;-91
2022/07/15 02:39:49;;;;;;;;;;;;;;;25.34;60.57;99443.19;4345635;33;20004;-90
2022/07/15 02:42:14;;;;;;;;;;;;;;;25.39;60.57;99439.06;4345423;33;19991;-88
2022/07/15 02:44:39;;;;;;;;;;;;;;;25.45;60.58;99436.78;4347651;33;19991;-86
2022/07/15 02:47:04;;;;;;;;;;;;;;;25.56;60.58;99439.25;4348640;33;20326;-87
2022/07/15 02:49:30;;;;;;;;;;;;;;;25.59;60.58;99433.59;4349026;33;19984;-88
2022/07/15 02:51:55;;;;;;;;;;;;;;;25.78;60.59;99428.13;4347442;33;20014;-88
2022/07/15 02:54:20;;;;;;;;;;;;;;;25.72;60.59;99436.75;4360144;32;19995;-88
2022/07/15 02:56:45;;;;;;;;;;;;;;;25.64;60.58;99439.31;4347157;33;22877;-88
2022/07/15 02:59:11;;;;;;;;;;;;;;;25.71;60.58;99437.72;4359658;32;20679;-88
2022/07/15 03:01:36;;;;;;;;;;;;;;;25.69;60.58;99434.38;4347667;33;19987;-87
2022/07/15 03:04:01;;;;;;;;;;;;;;;25.64;60.58;99425.97;4347574;33;19979;-88
2022/07/15 03:06:26;;;;;;;;;;;;;;;25.88;60.59;99426.22;4360146;32;20265;-88
2022/07/15 03:08:52;;;;;;;;;;;;;;;25.81;60.59;99437.66;4360306;32;20035;-87
2022/07/15 03:11:17;;;;;;;;;;;;;;;25.86;60.60;99422.03;4349081;33;20002;-87
2022/07/15 03:13:42;;;;;;;;;;;;;;;25.90;60.59;99418.91;4349226;33;19987;-88
2022/07/15 03:16:07;;;;;;;;;;;;;;;25.81;60.59;99422.50;4360289;32;20728;-88
2022/07/15 03:18:33;;;;;;;;;;;;;;;25.83;60.59;99431.19;4349523;33;20297;-88
2022/07/15 03:20:58;;;;;;;;;;;;;;;25.88;60.60;99438.72;4350311;33;25409;-88
2022/07/15 03:23:23;;;;;;;;;;;;;;;25.84;60.59;99451.53;4372293;32;20025;-88
2022/07/15 03:25:48;;;;;;;;;;;;;;;25.89;60.59;99440.41;4349701;33;19987;-88
2022/07/15 03:28:14;;;;;;;;;;;;;;;25.94;60.60;99440.75;4347594;33;19975;-89
2022/07/15 03:30:39;;;;;;;;;;;;;;;26.05;60.60;99443.19;4359854;32;20003;-89
2022/07/15 03:33:04;;;;;;;;;;;;;;;26.07;60.61;99443.03;4359776;32;19995;-89
2022/07/15 03:35:29;;;;;;;;;;;;;;;26.09;60.61;99431.22;4348781;33;19991;-89
2022/07/15 03:37:54;;;;;;;;;;;;;;;25.99;60.60;99430.47;4359223;32;20035;-88
2022/07/15 03:40:20;;;;;;;;;;;;;;;25.93;60.60;99428.41;4348766;33;19983;-88
2022/07/15 03:42:45;;;;;;;;;;;;;;;25.86;60.60;99438.03;4348333;33;19995;-88
2022/07/15 03:45:10;;;;;;;;;;;;;;;25.81;60.59;99435.84;4359414;32;20031;-88
2022/07/15 03:47:36;;;;;;;;;;;;;;;25.80;60.59;99426.16;4348570;33;20042;-88
2022/07/15 03:50:01;;;;;;;;;;;;;;;25.83;60.59;99446.34;4359493;32;19972;-88
2022/07/15 03:52:27;;;;;;;;;;;;;;;25.78;60.59;99441.44;4359447;32;20007;-89
2022/07/15 03:54:52;;;;;;;;;;;;;;;25.73;60.59;99453.56;4347310;33;20046;-90
2022/07/15 03:57:17;;;;;;;;;;;;;;;25.73;60.58;99470.41;4346086;33;19994;-89
2022/07/15 03:59:42;;;;;;;;;;;;;;;25.68;60.58;99488.69;4347029;33;20009;-89
2022/07/15 04:02:08;;;;;;;;;;;;;;;25.51;60.57;99479.66;4348157;33;20030;-86
2022/07/15 04:04:33;;;;;;;;;;;;;;;25.50;60.57;99474.47;4348543;33;20029;-86
2022/07/15 04:06:58;;;;;;;;;;;;;;;25.40;60.57;99467.41;4359487;32;20298;-88
2022/07/15 04:09:23;;;;;;;;;;;;;;;25.48;60.58;99468.47;4359202;32;24790;-88
2022/07/15 04:11:49;;;;;;;;;;;;;;;25.38;60.57;99464.03;4346678;33;20329;-88
2022/07/15 04:14:14;;;;;;;;;;;;;;;25.42;60.57;99456.59;4359379;32;19984;-88
2022/07/15 04:16:40;;;;;;;;;;;;;;;25.45;60.58;99460.78;4359582;32;20046;-89
2022/07/15 04:19:06;;;;;;;;;;;;;;;25.31;60.56;99468.28;4359636;32;19976;-88
2022/07/15 04:21:31;;;;;;;;;;;;;;;25.27;60.55;99460.75;4359179;32;19999;-88
2022/07/15 04:23:56;;;;;;;;;;;;;;;25.27;60.56;99460.75;4348624;33;20313;-88
2022/07/15 04:26:21;;;;;;;;;;;;;;;25.18;60.56;99482.97;4348346;33;20005;-87
2022/07/15 04:28:47;;;;;;;;;;;;;;;24.98;60.56;99493.66;4348451;33;20022;-88
2022/07/15 04:31:12;;;;;;;;;;;;;;;25.03;60.55;99488.78;4358589;32;21593;-89
2022/07/15 04:33:37;;;;;;;;;;;;;;;24.96;60.55;99490.31;4346804;33;19991;-89
2022/07/15 04:36:02;;;;;;;;;;;;;;;24.90;60.54;99495.41;4349630;32;20318;-86
2022/07/15 04:38:28;;;;;;;;;;;;;;;24.85;60.54;99498.50;4347656;33;20360;-90
2022/07/15 04:40:53;;;;;;;;;;;;;;;24.57;60.53;99500.25;4347164;33;20039;-89
2022/07/15 04:43:19;;;;;;;;;;;;;;;24.32;60.52;99496.41;4359381;32;20011;-89
2022/07/15 04:45:44;;;;;;;;;;;;;;;24.34;60.52;99491.75;4348268;33;19987;-90
2022/07/15 04:50:53;;;;;;;;;;;;;;;24.18;60.51;99497.66;4357813;32;20018;-90
2022/07/15 04:53:19;;;;;;;;;;;;;;;24.18;60.51;99495.00;4359445;32;20007;-90
2022/07/15 04:55:45;;;;;;;;;;;;;;;23.87;60.49;99506.75;4359785;32;19971;-90
2022/07/15 04:58:10;;;;;;;;;;;;;;;23.95;60.50;99490.13;4347575;33;20067;-89
2022/07/15 05:00:35;;;;;;;;;;;;;;;23.96;60.49;99497.09;4360020;32;22631;-88
2022/07/15 05:03:04;;;;;;;;;;;;;;;24.02;60.50;99499.19;4363839;32;20007;-90
2022/07/15 05:05:29;;;;;;;;;;;;;;;23.68;60.49;99504.09;4357066;33;20054;-90
2022/07/15 05:07:54;;;;;;;;;;;;;;;23.72;60.49;99487.72;4347414;33;20043;-90
2022/07/15 05:10:20;;;;;;;;;;;;;;;23.66;60.48;99503.38;4346359;33;20054;-90
2022/07/15 05:12:45;;;;;;;;;;;;;;;23.45;60.47;99506.97;4358501;32;23838;-89
2022/07/15 05:15:10;;;;;;;;;;;;;;;23.51;60.48;99503.75;4348054;33;19991;-90
2022/07/15 05:17:35;;;;;;;;;;;;;;;23.30;60.47;99508.31;4359208;32;20279;-89
2022/07/15 05:20:01;;;;;;;;;;;;;;;23.34;60.47;99517.69;4359142;32;20143;-90
2022/07/15 05:22:26;;;;;;;;;;;;;;;23.15;60.46;99531.75;4358843;32;20002;-90
2022/07/15 05:24:51;;;;;;;;;;;;;;;23.12;60.47;99542.63;4346489;33;19979;-90
2022/07/15 05:27:16;;;;;;;;;;;;;;;22.91;60.44;99540.03;4358960;32;19995;-90
2022/07/15 05:29:42;;;;;;;;;;;;;;;22.72;60.44;99529.31;4346592;33;20140;-90
2022/07/15 05:32:07;;;;;;;;;;;;;;;22.59;60.42;99526.00;4346254;32;20094;-91
2022/07/15 05:34:32;;;;;;;;;;;;;;;22.56;60.43;99526.28;4346558;33;20042;-91
2022/07/15 05:36:57;;;;;;;;;;;;;;;22.37;60.41;99538.44;4359054;32;20530;-91
2022/07/15 05:39:23;;;;;;;;;;;;;;;22.30;60.40;99547.88;4358768;32;20083;-91
2022/07/15 05:41:48;;;;;;;;;;;;;;;22.43;60.42;99541.53;4358782;32;19995;-91
2022/07/15 05:44:13;;;;;;;;;;;;;;;22.46;60.41;99558.03;4358927;32;20013;-91
2022/07/15 05:46:39;;;;;;;;;;;;;;;22.22;60.41;99552.97;4358596;32;20014;-91
2022/07/15 05:49:04;;;;;;;;;;;;;;;22.19;60.40;99553.22;4358881;32;19995;-91
2022/07/15 05:51:29;;;;;;;;;;;;;;;21.99;60.39;99546.88;4346388;33;20052;-90
2022/07/15 05:53:55;;;;;;;;;;;;;;;22.06;60.39;99552.56;4346318;33;20360;-91
2022/07/15 05:56:20;;;;;;;;;;;;;;;22.02;60.40;99565.22;4358740;32;19999;-89
2022/07/15 05:58:45;;;;;;;;;;;;;;;22.11;60.40;99584.84;4346049;33;20022;-89
2022/07/15 06:01:10;;;;;;;;;;;;;;;21.80;60.38;99588.28;4347529;33;20408;-89
2022/07/15 06:03:36;;;;;;;;;;;;;;;21.75;60.38;99594.78;4358456;32;19995;-89
2022/07/15 06:06:03;;;;;;;;;;;;;;;21.58;60.37;99605.91;4358757;32;19976;-89
2022/07/15 06:08:28;;;;;;;;;;;;;;;21.54;60.36;99603.63;4346096;32;20325;-88
2022/07/15 06:10:53;;;;;;;;;;;;;;;21.59;60.37;99582.91;4358423;32;20006;-90
2022/07/15 06:13:20;;;;;;;;;;;;;;;21.60;60.37;99595.19;4358886;32;20360;-90
2022/07/15 06:15:45;;;;;;;;;;;;;;;21.54;60.36;99593.88;4346183;33;20043;-89
2022/07/15 06:18:11;;;;;;;;;;;;;;;21.36;60.35;99582.94;4346085;33;20043;-90
2022/07/15 06:20:36;;;;;;;;;;;;;;;21.38;60.35;99596.03;4347458;33;20023;-89
2022/07/15 06:23:01;;;;;;;;;;;;;;;21.55;60.37;99598.19;4349182;33;19975;-90
2022/07/15 06:25:26;;;;;;;;;;;;;;;21.52;60.36;99600.22;4347778;33;20443;-90
2022/07/15 06:27:52;;;;;;;;;;;;;;;21.59;60.38;99601.44;4360281;32;20411;-90
2022/07/15 06:30:17;;;;;;;;;;;;;;;21.44;60.36;99625.53;4360149;32;20003;-90
2022/07/15 06:32:42;;;;;;;;;;;;;;;21.62;60.36;99617.09;4360508;32;19989;-90
2022/07/15 06:35:08;;;;;;;;;;;;;;;21.68;60.37;99609.47;4360577;32;20274;-89
2022/07/15 06:37:33;;;;;;;;;;;;;;;21.70;60.37;99606.72;4348166;33;19998;-90
2022/07/15 06:39:58;;;;;;;;;;;;;;;21.73;60.38;99603.81;4360406;32;20015;-90
2022/07/15 06:42:23;;;;;;;;;;;;;;;21.69;60.37;99627.06;4361100;32;19995;-89
2022/07/15 06:44:49;;;;;;;;;;;;;;;21.90;60.38;99647.50;4366184;32;19991;-90
2022/07/15 06:47:14;;;;;;;;;;;;;;;21.99;60.38;99652.06;4356079;33;19995;-90
2022/07/15 06:49:39;;;;;;;;;;;;;;;22.08;60.39;99659.31;4349268;33;20027;-89
2022/07/15 06:52:04;;;;;;;;;;;;;;;21.93;60.38;99666.66;4348989;32;20002;-90
2022/07/15 06:54:30;;;;;;;;;;;;;;;22.22;60.40;99690.00;4360353;32;20321;-90
2022/07/15 06:56:56;;;;;;;;;;;;;;;22.01;60.40;99711.13;4361994;32;20022;-89
2022/07/15 06:59:21;;;;;;;;;;;;;;;22.00;60.38;99710.28;4360853;32;19992;-90
2022/07/15 07:04:49;;;;;;;;;;;;;;;21.90;60.38;99735.81;4348947;33;20381;-90
2022/07/15 07:07:14;;;;;;;;;;;;;;;21.98;60.38;99729.88;4346734;33;32649;-90
2022/07/15 07:09:40;;;;;;;;;;;;;;;21.85;60.38;99742.44;4347261;33;23512;-90
2022/07/15 07:12:05;;;;;;;;;;;;;;;21.72;60.37;99746.03;4348843;33;19968;-89
2022/07/15 07:14:31;;;;;;;;;;;;;;;21.74;60.37;99743.25;4359912;32;19976;-89
2022/07/15 07:16:56;;;;;;;;;;;;;;;21.71;60.38;99732.91;4360000;32;20059;-89
2022/07/15 07:19:22;;;;;;;;;;;;;;;21.84;60.38;99720.41;4348414;33;20837;-90
2022/07/15 07:21:47;;;;;;;;;;;;;;;21.97;60.39;99715.78;4359581;32;19985;-89
2022/07/15 07:24:12;;;;;;;;;;;;;;;22.01;60.38;99717.25;4348707;33;19991;-89
2022/07/15 07:26:37;;;;;;;;;;;;;;;21.97;60.38;99731.69;4347255;32;20007;-89
2022/07/15 07:29:03;;;;;;;;;;;;;;;21.93;60.38;99742.66;4359675;32;21466;-89
2022/07/15 07:31:28;;;;;;;;;;;;;;;21.93;60.38;99740.84;4346597;32;20011;-89
2022/07/15 07:33:55;;;;;;;;;;;;;;;21.86;60.38;99744.13;4347513;33;19976;-89
2022/07/15 07:36:20;;;;;;;;;;;;;;;21.98;60.38;99740.50;4359775;32;19980;-89
2022/07/15 07:38:45;;;;;;;;;;;;;;;22.11;60.39;99740.41;4347313;33;20038;-89
2022/07/15 07:41:10;;;;;;;;;;;;;;;22.14;60.39;99729.53;4347514;33;20035;-89
2022/07/15 07:43:37;;;;;;;;;;;;;;;22.13;60.39;99723.41;4359830;32;19975;-90
2022/07/15 07:46:02;;;;;;;;;;;;;;;22.33;60.41;99727.94;4348524;33;20030;-89
2022/07/15 07:48:29;;;;;;;;;;;;;;;22.40;60.41;99744.19;4348527;33;20047;-89
2022/07/15 07:50:54;;;;;;;;;;;;;;;22.23;60.40;99750.00;4348612;33;19984;-89
2022/07/15 07:53:19;;;;;;;;;;;;;;;22.31;60.40;99740.50;4359479;32;19971;-89
2022/07/15 07:55:44;;;;;;;;;;;;;;;22.22;60.40;99727.13;4347392;33;19995;-89
2022/07/15 07:58:10;;;;;;;;;;;;;;;21.99;60.38;99731.56;4359428;32;20003;-89
2022/07/15 08:00:35;;;;;;;;;;;;;;;21.95;60.38;99736.28;4347160;32;19979;-90
2022/07/15 08:03:00;;;;;;;;;;;;;;;22.00;60.38;99731.47;4347215;33;20023;-89
2022/07/15 08:05:26;;;;;;;;;;;;;;;21.91;60.38;99736.66;4348341;33;20079;-89
2022/07/15 08:07:51;;;;;;;;;;;;;;;21.98;60.38;99716.63;4347028;33;20286;-89
2022/07/15 08:10:19;;;;;;;;;;;;;;;22.10;60.40;99744.88;4359557;32;20019;-90
2022/07/15 08:12:44;;;;;;;;;;;;;;;22.11;60.39;99751.84;4359648;32;20325;-89
2022/07/15 08:15:10;;;;;;;;;;;;;;;22.04;60.39;99763.91;4347071;33;20007;-90
2022/07/15 08:17:35;;;;;;;;;;;;;;;22.04;60.38;99766.56;4347057;33;20349;-88
2022/07/15 08:20:01;;;;;;;;;;;;;;;22.05;60.38;99766.44;4348780;33;19991;-91
2022/07/15 08:22:26;;;;;;;;;;;;;;;21.81;60.38;99773.63;4360103;32;19979;-90
2022/07/15 08:24:51;;;;;;;;;;;;;;;22.05;60.39;99781.50;4348080;33;20373;-89
2022/07/15 08:27:17;;;;;;;;;;;;;;;22.12;60.40;99776.56;4368098;32;19956;-90
2022/07/15 08:29:42;;;;;;;;;;;;;;;22.29;60.40;99770.75;4367480;32;20326;-90
2022/07/15 08:32:07;;;;;;;;;;;;;;;22.49;60.41;99777.09;4347346;33;20022;-90
2022/07/15 08:34:33;;;;;;;;;;;;;;;22.72;60.42;99772.59;4346979;32;19983;-90
2022/07/15 08:36:58;;;;;;;;;;;;;;;22.94;60.42;99780.47;4359597;32;20046;-89
2022/07/15 08:39:24;;;;;;;;;;;;;;;23.09;60.43;99760.62;4359501;32;19980;-89
2022/07/15 08:41:50;;;;;;;;;;;;;;;23.05;60.44;99761.00;4346620;33;20313;-89
2022/07/15 08:44:15;;;;;;;;;;;;;;;23.07;60.43;99762.56;4359451;32;20034;-89
2022/07/15 08:46:40;;;;;;;;;;;;;;;23.07;60.44;99751.09;4358891;32;20011;-90
2022/07/15 08:49:08;;;;;;;;;;;;;;;23.13;60.44;99756.72;4359491;32;20018;-89
2022/07/15 08:51:37;;;;;;;;;;;;;;;23.26;60.44;99786.63;4359216;32;19963;-89
2022/07/15 08:54:02;;;;;;;;;;;;;;;23.24;60.45;99783.25;4348273;33;20047;-89
2022/07/15 08:56:27;;;;;;;;;;;;;;;23.12;60.45;99781.59;4346921;33;20029;-90
2022/07/15 08:58:53;;;;;;;;;;;;;;;23.19;60.45;99789.91;4359106;32;19984;-90
2022/07/15 09:01:18;;;;;;;;;;;;;;;23.08;60.43;99792.63;4348029;33;20003;-89
2022/07/15 09:03:43;;;;;;;;;;;;;;;23.18;60.44;99782.91;4359187;32;20023;-89
2022/07/15 09:06:08;;;;;;;;;;;;;;;23.43;60.46;99779.87;4359068;32;20007;-89
2022/07/15 09:08:34;;;;;;;;;;;;;;;23.57;60.47;99771.59;4358788;32;19995;-90
2022/07/15 09:11:00;;;;;;;;;;;;;;;23.24;60.45;99783.25;4359226;32;20019;-90
2022/07/15 09:13:36;;;;;;;;;;;;;;;23.45;60.46;99806.31;4346753;32;20309;-89
2022/07/15 09:16:02;;;;;;;;;;;;;;;23.53;60.46;99809.16;4348126;33;19991;-90
2022/07/15 09:18:33;;;;;;;;;;;;;;;23.34;60.44;99791.28;4348041;33;19975;-90
2022/07/15 09:20:58;;;;;;;;;;;;;;;23.37;60.46;99767.09;4359065;32;20007;-91
2022/07/15 09:23:29;;;;;;;;;;;;;;;23.42;60.45;99772.03;4359041;32;20002;-90
2022/07/15 09:25:55;;;;;;;;;;;;;;;23.57;60.46;99773.41;4358700;32;20002;-90
2022/07/15 09:28:20;;;;;;;;;;;;;;;23.44;60.46;99784.22;4347832;33;20396;-90
2022/07/15 09:36:04;;;;;;;;;;;;;;;23.46;60.45;99806.19;4358839;32;20363;-90
2022/07/15 09:38:30;;;;;;;;;;;;;;;23.54;60.46;99814.34;4347740;32;19998;-90
2022/07/15 09:40:56;;;;;;;;;;;;;;;23.77;60.47;99816.88;4359111;32;20434;-90
2022/07/15 09:43:21;;;;;;;;;;;;;;;23.93;60.48;99814.59;4346567;33;20007;-90
2022/07/15 09:45:46;;;;;;;;;;;;;;;24.04;60.48;99817.16;4347886;33;20278;-90
2022/07/15 09:48:14;;;;;;;;;;;;;;;23.87;60.48;99818.63;4347739;33;19995;-90
2022/07/15 09:50:40;;;;;;;;;;;;;;;24.02;60.48;99827.09;4358907;32;19967;-90
2022/07/15 09:53:09;;;;;;;;;;;;;;;24.11;60.49;99815.66;4358941;32;20046;-90
2022/07/15 09:55:36;;;;;;;;;;;;;;;24.01;60.49;99822.75;4345688;33;20051;-90
2022/07/15 09:58:04;;;;;;;;;;;;;;;23.95;60.48;99814.47;4359021;32;19986;-90
2022/07/15 10:00:29;;;;;;;;;;;;;;;23.85;60.48;99801.94;4358861;32;20022;-90
2022/07/15 10:02:55;;;;;;;;;;;;;;;24.12;60.48;99795.22;4359196;32;20321;-88
2022/07/15 10:05:20;;;;;;;;;;;;;;;24.32;60.50;99772.22;4346716;33;20546;-88
2022/07/15 10:07:45;;;;;;;;;;;;;;;24.45;60.51;99741.72;4347202;33;19984;-88
2022/07/15 10:10:11;;;;;;;;;;;;;;;24.69;60.52;99717.38;4371422;32;19963;-88
2022/07/15 10:12:42;;;;;;;;;;;;;;;24.91;60.54;99713.59;4349738;33;20404;-88
2022/07/15 10:15:11;;;;;;;;;;;;;;;25.02;60.53;99736.59;4358857;32;20265;-88
2022/07/15 10:17:40;;;;;;;;;;;;;;;25.12;60.54;99760.56;4358517;32;19980;-88
2022/07/15 10:20:08;;;;;;;;;;;;;;;25.12;60.54;99753.41;4347488;33;20377;-87
2022/07/15 10:22:34;;;;;;;;;;;;;;;25.18;60.55;99749.34;4347494;33;19980;-88
2022/07/15 10:25:14;;;;;;;;;;;;;;;24.98;60.54;99738.66;4347221;33;19983;-87
2022/07/15 10:27:55;;;;;;;;;;;;;;;24.99;60.54;99728.88;4347999;32;20125;-88
2022/07/15 10:30:21;;;;;;;;;;;;;;;25.00;60.53;99707.44;4358376;32;20002;-87
2022/07/15 10:33:05;;;;;;;;;;;;;;;25.03;60.54;99698.31;4358460;32;19983;-88
2022/07/15 10:35:36;;;;;;;;;;;;;;;25.00;60.53;99701.28;4358570;32;19995;-90
2022/07/15 10:38:20;;;;;;;;;;;;;;;25.03;60.54;99714.31;4347030;33;19971;-90
2022/07/15 10:41:04;;;;;;;;;;;;;;;25.22;60.54;99718.75;4347285;33;19987;-90
2022/07/15 10:43:48;;;;;;;;;;;;;;;25.38;60.55;99729.69;4358392;32;20010;-91
2022/07/15 10:46:16;;;;;;;;;;;;;;;25.39;60.56;99729.53;4347108;33;19979;-91
2022/07/15 10:48:42;;;;;;;;;;;;;;;25.56;60.57;99737.78;4358057;32;19994;-90
2022/07/15 10:51:07;;;;;;;;;;;;;;;25.49;60.56;99736.66;4358362;32;20015;-90
2022/07/15 10:53:32;;;;;;;;;;;;;;;25.59;60.56;99748.97;4346835;33;20030;-91
2022/07/15 10:56:17;;;;;;;;;;;;;;;25.92;60.58;99744.09;4345653;33;19999;-89
2022/07/15 10:59:03;;;;;;;;;;;;;;;26.15;60.59;99739.22;4346944;32;19955;-89
2022/07/15 11:01:28;;;;;;;;;;;;;;;26.30;60.60;99745.75;4346902;32;19997;-88
2022/07/15 11:04:13;;;;;;;;;;;;;;;26.55;60.61;99744.22;4357548;32;20313;-89
2022/07/15 11:06:57;;;;;;;;;;;;;;;26.72;60.63;99739.84;4348213;32;19983;-88
2022/07/15 11:09:42;;;;;;;;;;;;;;;26.59;60.62;99733.06;4360108;32;20524;-88
2022/07/15 11:12:07;;;;;;;;;;;;;;;26.46;60.61;99743.25;4349085;33;19984;-88
2022/07/15 11:14:39;;;;;;;;;;;;;;;26.39;60.61;99741.34;4359504;32;20670;-89
2022/07/15 11:17:05;;;;;;;;;;;;;;;26.45;60.61;99736.25;4359883;32;19992;-91
2022/07/15 11:19:30;;;;;;;;;;;;;;;26.45;60.62;99735.41;4359917;32;20024;-90
2022/07/15 11:21:55;;;;;;;;;;;;;;;26.56;60.63;99738.72;4347639;33;19998;-90
2022/07/15 11:24:21;;;;;;;;;;;;;;;26.76;60.63;99739.41;4359752;32;19987;-88
2022/07/15 11:26:47;;;;;;;;;;;;;;;26.97;60.65;99732.88;4359907;32;20431;-88
2022/07/15 11:29:12;;;;;;;;;;;;;;;27.18;60.65;99736.09;4360197;32;19986;-88
2022/07/15 11:31:40;;;;;;;;;;;;;;;26.92;60.64;99733.34;4359888;32;20027;-88
2022/07/15 11:34:06;;;;;;;;;;;;;;;27.19;60.66;99733.28;4360048;32;19999;-88
2022/07/15 11:36:31;;;;;;;;;;;;;;;27.41;60.67;99733.75;4347212;33;20034;-88
2022/07/15 11:38:58;;;;;;;;;;;;;;;27.51;60.68;99732.66;4359496;32;23186;-89
2022/07/15 11:46:52;;;;;;;;;;;;;;;28.38;60.72;99731.59;4358828;32;20002;-89
2022/07/15 11:49:27;;;;;;;;;;;;;;;28.25;60.71;99725.03;4348701;33;20265;-89
2022/07/15 11:51:52;;;;;;;;;;;;;;;28.38;60.72;99728.06;4367026;32;20011;-89
2022/07/15 11:54:17;;;;;;;;;;;;;;;28.31;60.72;99730.56;4355061;33;20274;-90
2022/07/15 11:56:43;;;;;;;;;;;;;;;28.20;60.71;99725.50;4347662;33;20009;-88
2022/07/15 11:59:08;;;;;;;;;;;;;;;28.08;60.70;99729.47;4360106;32;19976;-89
2022/07/15 12:01:33;;;;;;;;;;;;;;;27.88;60.69;99730.72;4359999;32;20353;-89
2022/07/15 12:03:59;;;;;;;;;;;;;;;27.85;60.69;99736.38;4347343;33;20042;-89
2022/07/15 12:06:25;;;;;;;;;;;;;;;27.80;60.69;99734.19;4347155;33;19995;-89
2022/07/15 12:08:52;;;;;;;;;;;;;;;27.74;60.68;99737.50;4359700;32;19975;-89
2022/07/15 12:11:21;;;;;;;;;;;;;;;27.60;60.69;99746.91;4348507;33;19991;-89
2022/07/15 12:13:48;;;;;;;;;;;;;;;27.51;60.68;99739.84;4347247;33;20055;-89
2022/07/15 12:16:13;;;;;;;;;;;;;;;27.54;60.68;99744.88;4359689;32;19987;-89
2022/07/15 12:18:39;;;;;;;;;;;;;;;27.71;60.68;99743.19;4359020;32;20026;-88
2022/07/15 12:21:04;;;;;;;;;;;;;;;27.85;60.70;99747.06;4348387;33;19979;-89
2022/07/15 12:23:29;;;;;;;;;;;;;;;28.08;60.71;99743.66;4346760;33;22672;-89
2022/07/15 12:26:02;;;;;;;;;;;;;;;28.16;60.72;99742.87;4347143;33;19983;-89
2022/07/15 12:28:31;;;;;;;;;;;;;;;28.33;60.72;99741.09;4346958;32;19980;-89
2022/07/15 12:30:56;;;;;;;;;;;;;;;28.61;60.74;99726.44;4359664;32;20002;-90
2022/07/15 12:33:21;;;;;;;;;;;;;;;28.80;60.74;99721.78;4346865;33;20015;-89
2022/07/15 12:35:47;;;;;;;;;;;;;;;29.09;60.75;99732.03;4359397;32;20403;-90
2022/07/15 12:38:30;;;;;;;;;;;;;;;29.22;60.76;99717.09;4348189;33;20018;-91
2022/07/15 12:41:05;;;;;;;;;;;;;;;29.29;60.76;99722.62;4347245;33;19979;-90
2022/07/15 12:43:49;;;;;;;;;;;;;;;29.07;60.76;99716.09;4347444;32;20345;-90
2022/07/15 12:46:15;;;;;;;;;;;;;;;29.21;60.77;99706.56;4359930;32;20059;-90
2022/07/15 12:48:46;;;;;;;;;;;;;;;29.29;60.77;99711.91;4347065;32;20392;-90
2022/07/15 12:51:11;;;;;;;;;;;;;;;29.33;60.78;99700.66;4359574;32;19991;-91
2022/07/15 12:53:37;;;;;;;;;;;;;;;29.54;60.78;99694.78;4347172;32;20050;-90
2022/07/15 12:56:03;;;;;;;;;;;;;;;29.65;60.79;99696.25;4347158;32;20014;-90
2022/07/15 12:58:29;;;;;;;;;;;;;;;29.69;60.79;99699.44;4359666;32;19984;-90
2022/07/15 13:01:24;;;;;;;;;;;;;;;29.49;60.78;99696.31;4359759;32;19979;-90
2022/07/15 13:03:51;;;;;;;;;;;;;;;29.50;60.78;99698.81;4331620;33;20005;-91